createdAt,value
2023-04-29T00:00:44.189Z,12.81
2023-04-29T00:01:44.908Z,12.83
2023-04-29T00:02:46.124Z,12.8
2023-04-29T00:03:47.111Z,12.83
2023-04-29T00:04:48.224Z,12.83
2023-04-29T00:05:48.553Z,12.81
2023-04-29T00:06:48.758Z,12.76
2023-04-29T00:07:49.272Z,12.76
2023-04-29T00:08:49.570Z,12.8
2023-04-29T00:09:50.431Z,12.83
2023-04-29T00:10:50.744Z,12.8
2023-04-29T00:11:50.682Z,12.87
2023-04-29T00:12:51.153Z,12.78
2023-04-29T00:13:51.346Z,12.75
2023-04-29T00:14:52.152Z,12.81
2023-04-29T00:15:52.628Z,12.78
2023-04-29T00:16:53.471Z,12.8
2023-04-29T00:17:53.728Z,12.84
2023-04-29T00:18:53.788Z,12.81
2023-04-29T00:19:54.876Z,12.78
2023-04-29T00:20:55.112Z,12.88
2023-04-29T00:21:55.434Z,12.75
2023-04-29T00:22:56.179Z,12.93
2023-04-29T00:23:56.648Z,12.83
2023-04-29T00:24:56.549Z,12.87
2023-04-29T00:25:57.297Z,12.93
2023-04-29T00:26:57.857Z,12.83
2023-04-29T00:27:58.153Z,12.88
2023-04-29T00:28:59.060Z,12.86
2023-04-29T00:30:00.511Z,12.9
2023-04-29T00:31:00.982Z,12.87
2023-04-29T00:32:02.294Z,12.87
2023-04-29T00:33:03.125Z,12.87
2023-04-29T00:34:02.806Z,12.88
2023-04-29T00:35:03.614Z,12.8
2023-04-29T00:36:04.578Z,12.8
2023-04-29T00:37:05.116Z,12.8
2023-04-29T00:38:06.014Z,12.78
2023-04-29T00:39:06.524Z,12.84
2023-04-29T00:40:07.155Z,12.83
2023-04-29T00:41:07.186Z,12.84
2023-04-29T00:42:08.279Z,12.83
2023-04-29T00:43:08.584Z,12.81
2023-04-29T00:44:08.766Z,12.7
2023-04-29T00:45:09.500Z,12.73
2023-04-29T00:46:10.374Z,12.84
2023-04-29T00:47:10.424Z,12.65
2023-04-29T00:48:11.431Z,12.61
2023-04-29T00:49:11.920Z,12.63
2023-04-29T00:50:12.675Z,12.68
2023-04-29T00:51:13.413Z,12.75
2023-04-29T00:52:13.909Z,12.65
2023-04-29T00:53:14.429Z,12.57
2023-04-29T00:54:15.205Z,12.57
2023-04-29T00:55:15.996Z,12.63
2023-04-29T00:56:16.766Z,12.57
2023-04-29T00:57:17.470Z,12.62
2023-04-29T00:58:18.007Z,12.57
2023-04-29T00:59:18.486Z,12.57
2023-04-29T01:00:18.990Z,12.62
2023-04-29T01:01:19.992Z,12.53
2023-04-29T01:02:20.786Z,12.53
2023-04-29T01:03:21.867Z,12.5
2023-04-29T01:04:22.210Z,12.51
2023-04-29T01:05:22.925Z,12.53
2023-04-29T01:06:23.227Z,12.55
2023-04-29T01:07:23.942Z,12.54
2023-04-29T01:08:24.442Z,12.55
2023-04-29T01:09:25.577Z,12.55
2023-04-29T01:10:26.557Z,12.57
2023-04-29T01:11:26.357Z,12.58
2023-04-29T01:12:27.126Z,12.57
2023-04-29T01:13:27.889Z,12.54
2023-04-29T01:14:28.517Z,12.68
2023-04-29T01:15:29.055Z,12.63
2023-04-29T01:16:30.608Z,12.62
2023-04-29T01:17:30.548Z,12.7
2023-04-29T01:18:31.342Z,12.61
2023-04-29T01:19:31.874Z,12.65
2023-04-29T01:20:32.834Z,12.65
2023-04-29T01:21:33.136Z,12.69
2023-04-29T01:22:33.437Z,12.61
2023-04-29T01:23:34.321Z,12.62
2023-04-29T01:24:35.293Z,12.8
2023-04-29T01:25:35.999Z,12.76
2023-04-29T01:26:36.742Z,12.78
2023-04-29T01:27:37.458Z,12.81
2023-04-29T01:28:37.547Z,12.83
2023-04-29T01:29:38.057Z,12.81
2023-04-29T01:30:38.835Z,12.81
2023-04-29T01:31:39.438Z,12.78
2023-04-29T01:32:40.421Z,12.84
2023-04-29T01:33:40.322Z,12.83
2023-04-29T01:34:41.191Z,12.87
2023-04-29T01:35:41.523Z,12.8
2023-04-29T01:36:42.011Z,12.8
2023-04-29T01:37:42.710Z,12.83
2023-04-29T01:38:43.435Z,12.86
2023-04-29T01:39:44.367Z,12.81
2023-04-29T01:40:45.025Z,12.9
2023-04-29T01:41:45.153Z,12.94
2023-04-29T01:42:46.086Z,12.84
2023-04-29T01:43:46.778Z,12.78
2023-04-29T01:44:47.407Z,12.9
2023-04-29T01:45:47.942Z,12.9
2023-04-29T01:46:48.722Z,12.95
2023-04-29T01:47:49.176Z,12.94
2023-04-29T01:48:49.400Z,12.98
2023-04-29T01:49:50.238Z,12.94
2023-04-29T01:50:50.854Z,12.93
2023-04-29T01:51:51.545Z,12.88
2023-04-29T01:52:51.834Z,12.9
2023-04-29T01:53:52.734Z,12.93
2023-04-29T01:54:53.693Z,12.91
2023-04-29T01:55:53.986Z,12.88
2023-04-29T01:56:54.743Z,12.91
2023-04-29T01:57:55.247Z,13.01
2023-04-29T01:58:55.739Z,12.88
2023-04-29T01:59:57.050Z,12.98
2023-04-29T02:00:58.279Z,12.88
2023-04-29T02:01:58.313Z,12.91
2023-04-29T02:02:59.101Z,12.9
2023-04-29T02:03:59.888Z,12.93
2023-04-29T02:05:00.334Z,12.93
2023-04-29T02:06:00.428Z,12.9
2023-04-29T02:07:00.735Z,12.95
2023-04-29T02:08:01.429Z,12.87
2023-04-29T02:09:01.929Z,12.94
2023-04-29T02:10:02.469Z,12.93
2023-04-29T02:11:03.216Z,12.9
2023-04-29T02:12:02.965Z,12.91
2023-04-29T02:13:03.733Z,12.81
2023-04-29T02:14:04.217Z,12.88
2023-04-29T02:15:04.880Z,12.95
2023-04-29T02:16:05.300Z,12.84
2023-04-29T02:17:06.168Z,12.88
2023-04-29T02:18:06.859Z,12.9
2023-04-29T02:19:07.504Z,12.81
2023-04-29T02:20:07.888Z,12.9
2023-04-29T02:21:08.633Z,12.83
2023-04-29T02:22:09.129Z,12.9
2023-04-29T02:23:09.829Z,12.81
2023-04-29T02:24:10.362Z,12.9
2023-04-29T02:25:10.631Z,12.9
2023-04-29T02:26:10.881Z,12.81
2023-04-29T02:27:11.860Z,12.87
2023-04-29T02:28:12.766Z,12.91
2023-04-29T02:29:13.032Z,12.8
2023-04-29T02:30:13.725Z,12.78
2023-04-29T02:31:13.840Z,12.87
2023-04-29T02:32:14.999Z,12.81
2023-04-29T02:33:15.680Z,12.81
2023-04-29T02:34:16.220Z,12.83
2023-04-29T02:35:16.892Z,12.81
2023-04-29T02:36:17.227Z,12.81
2023-04-29T02:37:17.934Z,12.84
2023-04-29T02:38:18.621Z,12.78
2023-04-29T02:39:18.554Z,12.81
2023-04-29T02:40:19.051Z,12.88
2023-04-29T02:41:19.948Z,12.81
2023-04-29T02:42:20.726Z,12.81
2023-04-29T02:43:21.224Z,12.8
2023-04-29T02:44:21.509Z,12.9
2023-04-29T02:45:22.084Z,12.9
2023-04-29T02:46:23.121Z,12.81
2023-04-29T02:47:23.397Z,12.81
2023-04-29T02:48:23.592Z,12.9
2023-04-29T02:49:24.318Z,12.81
2023-04-29T02:50:24.813Z,12.76
2023-04-29T02:51:25.733Z,12.76
2023-04-29T02:52:26.655Z,12.83
2023-04-29T02:53:27.344Z,12.81
2023-04-29T02:54:28.065Z,12.83
2023-04-29T02:55:28.641Z,12.81
2023-04-29T02:56:29.354Z,12.78
2023-04-29T02:57:30.522Z,12.86
2023-04-29T02:58:31.208Z,12.78
2023-04-29T02:59:31.708Z,12.8
2023-04-29T03:00:32.242Z,12.81
2023-04-29T03:01:33.065Z,12.76
2023-04-29T03:02:33.197Z,12.8
2023-04-29T03:03:34.460Z,12.86
2023-04-29T03:04:34.866Z,12.78
2023-04-29T03:05:35.391Z,12.8
2023-04-29T03:06:36.137Z,12.8
2023-04-29T03:07:36.225Z,12.75
2023-04-29T03:08:36.733Z,12.81
2023-04-29T03:09:37.025Z,12.8
2023-04-29T03:10:41.537Z,12.72
2023-04-29T03:11:38.198Z,12.81
2023-04-29T03:12:39.389Z,12.78
2023-04-29T03:13:40.139Z,12.8
2023-04-29T03:14:40.300Z,12.75
2023-04-29T03:15:40.678Z,12.75
2023-04-29T03:16:41.518Z,12.76
2023-04-29T03:17:41.442Z,12.78
2023-04-29T03:18:42.090Z,12.76
2023-04-29T03:19:43.113Z,12.75
2023-04-29T03:20:43.877Z,12.73
2023-04-29T03:21:44.419Z,12.72
2023-04-29T03:22:45.104Z,12.68
2023-04-29T03:23:45.585Z,12.66
2023-04-29T03:24:46.505Z,12.69
2023-04-29T03:25:46.746Z,12.63
2023-04-29T03:26:47.705Z,12.68
2023-04-29T03:27:48.322Z,12.65
2023-04-29T03:28:48.827Z,12.61
2023-04-29T03:29:49.414Z,12.69
2023-04-29T03:30:50.038Z,12.66
2023-04-29T03:31:50.977Z,12.63
2023-04-29T03:32:51.807Z,12.61
2023-04-29T03:33:52.475Z,12.62
2023-04-29T03:34:52.999Z,12.66
2023-04-29T03:35:53.210Z,12.72
2023-04-29T03:36:53.924Z,12.63
2023-04-29T03:37:54.201Z,12.63
2023-04-29T03:38:54.730Z,12.65
2023-04-29T03:39:55.668Z,12.68
2023-04-29T03:40:56.197Z,12.75
2023-04-29T03:41:56.901Z,12.66
2023-04-29T03:42:57.843Z,12.63
2023-04-29T03:43:58.740Z,12.61
2023-04-29T03:44:59.830Z,12.62
2023-04-29T03:47:00.683Z,12.65
2023-04-29T03:48:01.740Z,12.66
2023-04-29T03:49:02.581Z,12.69
2023-04-29T03:50:02.815Z,12.7
2023-04-29T03:51:03.150Z,12.66
2023-04-29T03:52:03.885Z,12.68
2023-04-29T03:53:04.347Z,12.68
2023-04-29T03:54:04.662Z,12.69
2023-04-29T03:55:05.587Z,12.65
2023-04-29T03:56:06.260Z,12.65
2023-04-29T03:57:06.323Z,12.65
2023-04-29T03:58:07.264Z,12.57
2023-04-29T03:59:07.993Z,12.66
2023-04-29T04:00:08.686Z,12.66
2023-04-29T04:01:08.979Z,12.62
2023-04-29T04:02:09.513Z,12.65
2023-04-29T04:03:11.661Z,12.65
2023-04-29T04:04:11.697Z,12.66
2023-04-29T04:05:12.477Z,12.66
2023-04-29T04:06:12.800Z,12.63
2023-04-29T04:07:14.300Z,12.66
2023-04-29T04:08:15.012Z,12.63
2023-04-29T04:09:15.299Z,12.66
2023-04-29T04:10:15.860Z,12.63
2023-04-29T04:11:16.584Z,12.65
2023-04-29T04:12:16.894Z,12.65
2023-04-29T04:13:17.647Z,12.66
2023-04-29T04:14:18.404Z,12.63
2023-04-29T04:15:19.088Z,12.66
2023-04-29T04:16:19.848Z,12.65
2023-04-29T04:17:20.468Z,12.61
2023-04-29T04:18:21.018Z,12.58
2023-04-29T04:19:21.773Z,12.48
2023-04-29T04:20:22.375Z,12.53
2023-04-29T04:21:22.891Z,12.54
2023-04-29T04:22:23.415Z,12.53
2023-04-29T04:23:23.914Z,12.54
2023-04-29T04:24:24.638Z,12.54
2023-04-29T04:25:25.352Z,12.54
2023-04-29T04:26:25.504Z,12.58
2023-04-29T04:27:26.198Z,12.57
2023-04-29T04:28:26.961Z,12.55
2023-04-29T04:29:27.871Z,12.65
2023-04-29T04:30:28.365Z,12.53
2023-04-29T04:31:29.367Z,12.66
2023-04-29T04:32:29.507Z,12.63
2023-04-29T04:33:29.622Z,12.65
2023-04-29T04:34:29.965Z,12.66
2023-04-29T04:35:30.671Z,12.68
2023-04-29T04:36:31.464Z,12.68
2023-04-29T04:37:31.967Z,12.66
2023-04-29T04:38:32.664Z,12.66
2023-04-29T04:39:33.775Z,12.63
2023-04-29T04:40:33.524Z,12.65
2023-04-29T04:41:34.215Z,12.66
2023-04-29T04:42:33.917Z,12.65
2023-04-29T04:43:34.453Z,12.68
2023-04-29T04:44:34.962Z,12.63
2023-04-29T04:45:35.704Z,12.61
2023-04-29T04:46:35.985Z,12.66
2023-04-29T04:47:36.645Z,12.7
2023-04-29T04:48:36.594Z,12.73
2023-04-29T04:49:37.317Z,12.63
2023-04-29T04:50:38.472Z,12.65
2023-04-29T04:51:39.168Z,12.76
2023-04-29T04:52:40.104Z,12.75
2023-04-29T04:53:41.095Z,12.81
2023-04-29T04:54:41.783Z,12.75
2023-04-29T04:55:42.489Z,12.8
2023-04-29T04:56:43.200Z,12.83
2023-04-29T04:57:43.524Z,12.78
2023-04-29T04:58:44.284Z,12.81
2023-04-29T04:59:45.187Z,12.81
2023-04-29T05:00:45.135Z,12.81
2023-04-29T05:01:46.182Z,12.76
2023-04-29T05:02:47.460Z,12.81
2023-04-29T05:03:48.043Z,12.83
2023-04-29T05:04:47.796Z,12.83
2023-04-29T05:05:48.299Z,12.88
2023-04-29T05:06:48.714Z,12.75
2023-04-29T05:07:49.867Z,12.78
2023-04-29T05:08:50.581Z,12.83
2023-04-29T05:09:51.986Z,12.76
2023-04-29T05:10:52.041Z,12.78
2023-04-29T05:11:52.791Z,12.8
2023-04-29T05:12:53.291Z,12.8
2023-04-29T05:13:54.225Z,12.91
2023-04-29T05:14:54.936Z,12.91
2023-04-29T05:15:55.313Z,12.9
2023-04-29T05:16:55.667Z,12.9
2023-04-29T05:17:56.799Z,12.93
2023-04-29T05:18:57.089Z,12.91
2023-04-29T05:19:58.374Z,12.93
2023-04-29T05:20:58.723Z,12.99
2023-04-29T05:21:58.808Z,12.98
2023-04-29T05:23:00.331Z,13.11
2023-04-29T05:24:00.839Z,13.03
2023-04-29T05:25:01.548Z,13.03
2023-04-29T05:26:02.040Z,13.06
2023-04-29T05:27:02.910Z,13.17
2023-04-29T05:28:03.417Z,13.13
2023-04-29T05:29:04.415Z,13.19
2023-04-29T05:30:05.320Z,13.17
2023-04-29T05:31:05.944Z,13.17
2023-04-29T05:32:07.036Z,13.19
2023-04-29T05:33:07.135Z,13.27
2023-04-29T05:34:07.707Z,13.27
2023-04-29T05:35:09.327Z,13.27
2023-04-29T05:38:10.204Z,13.21
2023-04-29T05:39:10.739Z,13.24
2023-04-29T05:40:11.250Z,13.33
2023-04-29T05:41:12.164Z,13.27
2023-04-29T05:42:12.499Z,13.37
2023-04-29T05:43:12.585Z,13.37
2023-04-29T05:44:13.520Z,13.37
2023-04-29T05:45:14.235Z,13.45
2023-04-29T05:46:14.683Z,13.45
2023-04-29T05:47:15.601Z,13.42
2023-04-29T05:48:16.016Z,13.46
2023-04-29T05:49:16.942Z,13.54
2023-04-29T05:50:16.964Z,13.46
2023-04-29T05:51:17.748Z,13.55
2023-04-29T05:52:17.454Z,13.54
2023-04-29T05:53:18.254Z,13.58
2023-04-29T05:54:18.985Z,13.64
2023-04-29T05:55:19.876Z,13.64
2023-04-29T05:56:19.979Z,13.71
2023-04-29T05:57:20.566Z,13.78
2023-04-29T05:58:20.858Z,13.83
2023-04-29T05:59:21.788Z,13.85
2023-04-29T06:00:21.907Z,13.93
2023-04-29T06:01:22.620Z,14.04
2023-04-29T06:02:23.754Z,13.93
2023-04-29T06:03:24.010Z,14.04
2023-04-29T06:04:25.313Z,14.07
2023-04-29T06:05:26.577Z,14.05
2023-04-29T06:06:26.847Z,14.12
2023-04-29T06:07:27.218Z,14.16
2023-04-29T06:08:28.213Z,14.19
2023-04-29T06:09:33.297Z,14.33
2023-04-29T06:11:30.547Z,14.38
2023-04-29T06:12:31.239Z,14.4
2023-04-29T06:13:31.938Z,14.34
2023-04-29T06:14:32.995Z,14.44
2023-04-29T06:15:33.671Z,14.44
2023-04-29T06:16:34.501Z,14.43
2023-04-29T06:17:35.560Z,14.55
2023-04-29T06:18:36.061Z,14.56
2023-04-29T06:19:36.969Z,14.63
2023-04-29T06:20:37.928Z,14.7
2023-04-29T06:21:38.068Z,14.78
2023-04-29T06:22:38.392Z,14.97
2023-04-29T06:23:39.515Z,14.94
2023-04-29T06:24:40.226Z,15
2023-04-29T06:25:41.345Z,15.02
2023-04-29T06:26:41.378Z,15.04
2023-04-29T06:27:41.872Z,15.05
2023-04-29T06:28:42.593Z,15.1
2023-04-29T06:29:43.413Z,15.22
2023-04-29T06:30:43.528Z,15.29
2023-04-29T06:31:44.090Z,15.3
2023-04-29T06:32:44.255Z,15.39
2023-04-29T06:33:44.927Z,15.36
2023-04-29T06:34:45.423Z,15.51
2023-04-29T06:35:45.980Z,15.7
2023-04-29T06:36:46.684Z,15.72
2023-04-29T06:37:46.858Z,15.87
2023-04-29T06:38:48.391Z,15.91
2023-04-29T06:39:48.094Z,16.03
2023-04-29T06:40:49.158Z,16.08
2023-04-29T06:41:49.669Z,16.05
2023-04-29T06:42:50.570Z,16.06
2023-04-29T06:43:54.334Z,16.09
2023-04-29T06:45:53.547Z,15.96
2023-04-29T06:46:54.422Z,15.94
2023-04-29T06:47:54.921Z,15.91
2023-04-29T06:48:55.585Z,15.78
2023-04-29T06:49:56.459Z,15.81
2023-04-29T06:50:57.176Z,15.75
2023-04-29T06:51:57.920Z,15.76
2023-04-29T06:52:58.611Z,15.67
2023-04-29T06:53:59.548Z,15.7
2023-04-29T06:55:00.273Z,15.65
2023-04-29T06:56:00.808Z,15.57
2023-04-29T06:57:01.555Z,15.57
2023-04-29T06:58:02.166Z,15.55
2023-04-29T06:59:02.263Z,15.39
2023-04-29T07:00:03.246Z,15.45
2023-04-29T07:01:03.945Z,15.51
2023-04-29T07:02:04.549Z,15.41
2023-04-29T07:03:05.925Z,15.3
2023-04-29T07:04:06.176Z,15.32
2023-04-29T07:05:07.181Z,15.23
2023-04-29T07:06:07.883Z,15.19
2023-04-29T07:07:08.414Z,15.14
2023-04-29T07:08:08.689Z,15.12
2023-04-29T07:09:09.008Z,15.12
2023-04-29T07:10:09.704Z,15.02
2023-04-29T07:11:10.212Z,15.1
2023-04-29T07:12:10.900Z,15.14
2023-04-29T07:13:11.027Z,15.04
2023-04-29T07:14:11.953Z,15.11
2023-04-29T07:15:11.921Z,15.11
2023-04-29T07:16:12.452Z,15.1
2023-04-29T07:17:14.510Z,15
2023-04-29T07:19:14.075Z,15.25
2023-04-29T07:20:14.790Z,15.26
2023-04-29T07:21:15.714Z,15.22
2023-04-29T07:22:16.518Z,15.17
2023-04-29T07:23:17.228Z,15.18
2023-04-29T07:24:17.952Z,15.27
2023-04-29T07:25:18.252Z,15.3
2023-04-29T07:26:19.134Z,15.45
2023-04-29T07:27:19.626Z,15.63
2023-04-29T07:28:20.444Z,15.84
2023-04-29T07:29:21.194Z,16.05
2023-04-29T07:30:22.345Z,16.36
2023-04-29T07:31:23.359Z,16.62
2023-04-29T07:32:23.630Z,16.94
2023-04-29T07:33:24.423Z,17.39
2023-04-29T07:34:25.145Z,17.73
2023-04-29T07:35:25.664Z,17.68
2023-04-29T07:36:26.568Z,17.75
2023-04-29T07:37:27.384Z,17.69
2023-04-29T07:38:28.289Z,17.53
2023-04-29T07:39:29.203Z,17.5
2023-04-29T07:40:29.560Z,17.68
2023-04-29T07:41:30.063Z,17.66
2023-04-29T07:42:30.556Z,17.88
2023-04-29T07:43:31.487Z,18.02
2023-04-29T07:44:31.823Z,18.21
2023-04-29T07:45:32.399Z,18.21
2023-04-29T07:46:33.003Z,18.42
2023-04-29T07:47:33.485Z,18.57
2023-04-29T07:48:33.865Z,18.74
2023-04-29T07:49:34.417Z,19.11
2023-04-29T07:50:34.946Z,19.3
2023-04-29T07:51:35.888Z,19.53
2023-04-29T07:52:36.834Z,19.56
2023-04-29T07:53:37.214Z,19.74
2023-04-29T07:54:38.210Z,19.93
2023-04-29T07:55:38.757Z,20.03
2023-04-29T07:56:39.462Z,20.19
2023-04-29T07:57:40.387Z,20.5
2023-04-29T07:58:41.249Z,20.63
2023-04-29T07:59:41.754Z,20.63
2023-04-29T08:00:42.734Z,20.7
2023-04-29T08:01:42.673Z,20.75
2023-04-29T08:02:44.056Z,20.7
2023-04-29T08:03:47.603Z,20.68
2023-04-29T08:05:44.340Z,20.58
2023-04-29T08:06:45.182Z,20.26
2023-04-29T08:07:46.114Z,20.07
2023-04-29T08:09:47.281Z,19.72
2023-04-29T08:10:47.979Z,19.49
2023-04-29T08:11:48.472Z,19.41
2023-04-29T08:12:48.985Z,19.09
2023-04-29T08:13:49.851Z,18.92
2023-04-29T08:14:50.667Z,18.7
2023-04-29T08:15:50.724Z,18.55
2023-04-29T08:16:51.395Z,18.41
2023-04-29T08:17:52.342Z,18.31
2023-04-29T08:18:53.239Z,18.21
2023-04-29T08:19:54.338Z,18.03
2023-04-29T08:20:54.470Z,17.93
2023-04-29T08:21:55.416Z,17.98
2023-04-29T08:22:56.176Z,17.88
2023-04-29T08:23:55.900Z,17.78
2023-04-29T08:24:57.392Z,18.26
2023-04-29T08:25:57.100Z,18.76
2023-04-29T08:26:58.475Z,19.26
2023-04-29T08:27:58.221Z,19.53
2023-04-29T08:28:58.610Z,19.53
2023-04-29T08:29:59.306Z,19.44
2023-04-29T08:31:00.096Z,19.35
2023-04-29T08:32:01.335Z,19.15
2023-04-29T08:33:01.172Z,19.12
2023-04-29T08:34:01.828Z,18.96
2023-04-29T08:35:02.307Z,18.88
2023-04-29T08:36:03.268Z,19.26
2023-04-29T08:37:04.203Z,19.09
2023-04-29T08:38:04.877Z,19.29
2023-04-29T08:39:05.420Z,19.23
2023-04-29T08:40:06.148Z,19.32
2023-04-29T08:41:06.655Z,19.75
2023-04-29T08:42:07.006Z,19.97
2023-04-29T08:43:07.358Z,20.24
2023-04-29T08:44:08.278Z,20.24
2023-04-29T08:45:08.794Z,20.49
2023-04-29T08:46:09.823Z,20.64
2023-04-29T08:47:10.536Z,20.77
2023-04-29T08:48:11.791Z,20.82
2023-04-29T08:49:12.168Z,20.85
2023-04-29T08:50:12.306Z,20.93
2023-04-29T08:51:12.826Z,20.92
2023-04-29T08:52:13.531Z,21.07
2023-04-29T08:53:13.845Z,21.19
2023-04-29T08:54:14.352Z,21.48
2023-04-29T08:55:15.286Z,21.66
2023-04-29T08:56:16.000Z,21.63
2023-04-29T08:57:16.550Z,21.32
2023-04-29T08:58:16.857Z,21.04
2023-04-29T08:59:17.280Z,20.64
2023-04-29T09:00:18.079Z,20.29
2023-04-29T09:01:19.268Z,20
2023-04-29T09:02:19.603Z,19.78
2023-04-29T09:03:22.491Z,19.64
2023-04-29T09:04:20.777Z,19.49
2023-04-29T09:05:21.362Z,19.32
2023-04-29T09:06:22.263Z,19.23
2023-04-29T09:07:23.189Z,19.16
2023-04-29T09:08:23.735Z,19.39
2023-04-29T09:09:26.634Z,19.52
2023-04-29T09:11:25.420Z,19.35
2023-04-29T09:12:26.139Z,19.23
2023-04-29T09:13:26.856Z,19.38
2023-04-29T09:14:27.923Z,19.42
2023-04-29T09:15:28.520Z,19.71
2023-04-29T09:16:29.627Z,19.85
2023-04-29T09:17:30.370Z,20.36
2023-04-29T09:18:31.018Z,21.01
2023-04-29T09:19:31.642Z,21.54
2023-04-29T09:20:32.706Z,21.96
2023-04-29T09:21:33.245Z,22.51
2023-04-29T09:22:33.945Z,22.93
2023-04-29T09:23:34.883Z,23.25
2023-04-29T09:24:35.467Z,23.49
2023-04-29T09:25:35.834Z,23.79
2023-04-29T09:26:36.328Z,24.01
2023-04-29T09:27:37.120Z,24.19
2023-04-29T09:28:39.054Z,24.29
2023-04-29T09:29:38.100Z,23.81
2023-04-29T09:30:38.414Z,23.59
2023-04-29T09:31:39.310Z,23.84
2023-04-29T09:32:41.994Z,23.64
2023-04-29T09:34:41.316Z,22.74
2023-04-29T09:35:42.663Z,22.26
2023-04-29T09:36:43.361Z,22
2023-04-29T09:37:44.151Z,21.81
2023-04-29T09:38:45.205Z,21.96
2023-04-29T09:41:02.984Z,22.04
2023-04-29T09:42:47.171Z,22.23
2023-04-29T09:43:47.878Z,22.33
2023-04-29T09:44:48.202Z,22.21
2023-04-29T09:45:49.255Z,22.53
2023-04-29T09:46:49.962Z,22.7
2023-04-29T09:47:50.676Z,22.91
2023-04-29T09:48:51.007Z,23.2
2023-04-29T09:49:51.343Z,23.44
2023-04-29T09:50:51.895Z,23.69
2023-04-29T09:51:52.324Z,23.96
2023-04-29T09:52:52.831Z,24.21
2023-04-29T09:53:53.787Z,24.46
2023-04-29T09:54:55.053Z,24.61
2023-04-29T09:55:55.082Z,24.78
2023-04-29T09:56:55.675Z,24.81
2023-04-29T09:57:56.172Z,24.55
2023-04-29T09:58:57.026Z,24.59
2023-04-29T09:59:57.272Z,24.56
2023-04-29T10:00:58.002Z,24.65
2023-04-29T10:01:58.812Z,24.99
2023-04-29T10:02:59.123Z,25.12
2023-04-29T10:03:59.134Z,25.24
2023-04-29T10:05:00.475Z,24.63
2023-04-29T10:06:00.296Z,24.24
2023-04-29T10:07:00.642Z,23.67
2023-04-29T10:08:01.552Z,23.29
2023-04-29T10:09:02.494Z,22.84
2023-04-29T10:10:02.924Z,22.49
2023-04-29T10:11:03.593Z,22.15
2023-04-29T10:12:04.097Z,21.99
2023-04-29T10:13:04.642Z,22.18
2023-04-29T10:14:05.343Z,22.36
2023-04-29T10:15:05.943Z,22.67
2023-04-29T10:16:08.658Z,22.56
2023-04-29T10:17:06.528Z,22.38
2023-04-29T10:18:07.114Z,22.12
2023-04-29T10:19:07.758Z,21.92
2023-04-29T10:20:08.242Z,21.8
2023-04-29T10:21:08.993Z,21.63
2023-04-29T10:22:09.482Z,21.44
2023-04-29T10:23:10.175Z,21.17
2023-04-29T10:24:10.889Z,20.96
2023-04-29T10:25:11.196Z,20.86
2023-04-29T10:26:12.067Z,20.71
2023-04-29T10:27:12.225Z,20.98
2023-04-29T10:28:13.383Z,21.38
2023-04-29T10:29:13.972Z,21.75
2023-04-29T10:30:14.327Z,22
2023-04-29T10:31:15.370Z,22.37
2023-04-29T10:32:15.634Z,22.71
2023-04-29T10:33:16.019Z,22.93
2023-04-29T10:34:16.651Z,22.71
2023-04-29T10:35:17.169Z,22.53
2023-04-29T10:36:17.483Z,22.12
2023-04-29T10:37:18.187Z,21.83
2023-04-29T10:38:19.572Z,21.92
2023-04-29T10:39:19.293Z,22.07
2023-04-29T10:40:19.691Z,21.88
2023-04-29T10:41:20.257Z,22.08
2023-04-29T10:42:21.157Z,22.36
2023-04-29T10:43:21.902Z,22.23
2023-04-29T10:44:22.638Z,22.1
2023-04-29T10:45:23.163Z,22
2023-04-29T10:46:23.547Z,21.83
2023-04-29T10:47:23.772Z,21.63
2023-04-29T10:48:23.967Z,21.32
2023-04-29T10:49:26.047Z,21.32
2023-04-29T10:51:25.674Z,21.35
2023-04-29T10:52:26.214Z,21.3
2023-04-29T10:53:26.726Z,21.15
2023-04-29T10:54:27.363Z,21.04
2023-04-29T10:55:27.680Z,20.92
2023-04-29T10:56:28.212Z,20.77
2023-04-29T10:57:28.496Z,20.82
2023-04-29T10:58:29.198Z,20.77
2023-04-29T10:59:29.723Z,21.01
2023-04-29T11:00:30.369Z,21.22
2023-04-29T11:01:30.820Z,21.58
2023-04-29T11:02:31.161Z,21.75
2023-04-29T11:03:31.229Z,21.96
2023-04-29T11:04:31.464Z,22.28
2023-04-29T11:05:33.229Z,22.44
2023-04-29T11:07:32.533Z,22.73
2023-04-29T11:08:32.901Z,22.73
2023-04-29T11:09:33.553Z,22.91
2023-04-29T11:10:33.551Z,22.78
2023-04-29T11:11:34.392Z,22.65
2023-04-29T11:12:35.226Z,22.47
2023-04-29T11:13:36.158Z,22.3
2023-04-29T11:14:36.300Z,22.1
2023-04-29T11:15:37.116Z,21.96
2023-04-29T11:16:37.403Z,21.69
2023-04-29T11:17:37.834Z,21.43
2023-04-29T11:18:38.597Z,21.28
2023-04-29T11:19:39.506Z,21.13
2023-04-29T11:20:40.225Z,21.19
2023-04-29T11:21:40.766Z,20.95
2023-04-29T11:22:41.337Z,20.77
2023-04-29T11:23:42.320Z,20.58
2023-04-29T11:24:42.589Z,20.55
2023-04-29T11:25:45.415Z,20.36
2023-04-29T11:27:45.228Z,20.27
2023-04-29T11:28:45.544Z,20.27
2023-04-29T11:29:46.453Z,20.14
2023-04-29T11:30:46.896Z,20.07
2023-04-29T11:31:47.731Z,20
2023-04-29T11:32:48.579Z,19.96
2023-04-29T11:33:48.570Z,20
2023-04-29T11:34:49.285Z,19.96
2023-04-29T11:35:49.655Z,20.08
2023-04-29T11:36:53.127Z,20.02
2023-04-29T11:38:51.754Z,20.08
2023-04-29T11:39:52.487Z,20.14
2023-04-29T11:40:52.923Z,20.14
2023-04-29T11:41:53.490Z,20.21
2023-04-29T11:42:54.196Z,20.26
2023-04-29T11:43:54.712Z,20.39
2023-04-29T11:44:55.941Z,20.6
2023-04-29T11:45:56.495Z,20.88
2023-04-29T11:46:57.330Z,21.26
2023-04-29T11:48:01.599Z,21.62
2023-04-29T11:49:58.958Z,22.1
2023-04-29T11:50:59.796Z,22.43
2023-04-29T11:52:00.460Z,22.68
2023-04-29T11:53:01.408Z,22.89
2023-04-29T11:54:02.141Z,22.95
2023-04-29T11:55:03.112Z,23.08
2023-04-29T11:56:03.627Z,23.14
2023-04-29T11:57:04.391Z,23.32
2023-04-29T11:58:04.296Z,23.48
2023-04-29T11:59:05.030Z,23.71
2023-04-29T12:00:09.202Z,23.99
2023-04-29T12:01:06.663Z,24.03
2023-04-29T12:02:07.073Z,24.31
2023-04-29T12:03:07.902Z,24.31
2023-04-29T12:04:09.031Z,24.34
2023-04-29T12:05:09.565Z,24.46
2023-04-29T12:06:08.860Z,24.31
2023-04-29T12:07:09.199Z,24.11
2023-04-29T12:08:09.805Z,23.99
2023-04-29T12:09:10.310Z,23.82
2023-04-29T12:10:11.872Z,23.63
2023-04-29T12:11:11.736Z,23.48
2023-04-29T12:12:13.787Z,23.18
2023-04-29T12:13:14.387Z,22.89
2023-04-29T12:15:13.426Z,22.22
2023-04-29T12:16:14.059Z,21.83
2023-04-29T12:17:14.764Z,21.89
2023-04-29T12:18:15.647Z,21.75
2023-04-29T12:19:15.978Z,21.58
2023-04-29T12:20:16.968Z,21.35
2023-04-29T12:21:16.791Z,21.2
2023-04-29T12:22:17.139Z,21.03
2023-04-29T12:23:18.057Z,20.88
2023-04-29T12:24:18.561Z,20.58
2023-04-29T12:25:19.498Z,20.4
2023-04-29T12:26:19.813Z,20.15
2023-04-29T12:27:20.372Z,20.1
2023-04-29T12:28:21.216Z,19.96
2023-04-29T12:29:22.127Z,19.77
2023-04-29T12:30:22.666Z,19.52
2023-04-29T12:31:23.456Z,19.53
2023-04-29T12:32:24.208Z,19.38
2023-04-29T12:33:24.249Z,19.08
2023-04-29T12:34:24.346Z,19.07
2023-04-29T12:35:25.838Z,18.88
2023-04-29T12:36:25.816Z,18.91
2023-04-29T12:37:26.351Z,18.89
2023-04-29T12:38:27.280Z,18.97
2023-04-29T12:39:27.977Z,19.19
2023-04-29T12:40:30.650Z,19.44
2023-04-29T12:42:29.639Z,19.49
2023-04-29T12:43:30.134Z,19.49
2023-04-29T12:44:30.943Z,19.55
2023-04-29T12:45:30.773Z,19.52
2023-04-29T12:46:31.043Z,19.48
2023-04-29T12:47:31.986Z,19.56
2023-04-29T12:48:36.555Z,19.38
2023-04-29T12:50:33.741Z,19.35
2023-04-29T12:51:33.953Z,19.26
2023-04-29T12:52:37.101Z,19.07
2023-04-29T12:53:35.030Z,19.09
2023-04-29T12:54:34.948Z,18.98
2023-04-29T12:55:36.087Z,18.91
2023-04-29T12:56:36.593Z,19.04
2023-04-29T12:57:37.914Z,18.96
2023-04-29T12:58:37.641Z,18.97
2023-04-29T12:59:38.995Z,18.97
2023-04-29T13:00:39.093Z,19.11
2023-04-29T13:01:39.418Z,19.24
2023-04-29T13:02:42.659Z,19.22
2023-04-29T13:04:44.262Z,19.23
2023-04-29T13:05:42.584Z,19.32
2023-04-29T13:06:42.332Z,19.45
2023-04-29T13:07:43.102Z,19.44
2023-04-29T13:08:44.053Z,19.44
2023-04-29T13:09:44.556Z,19.57
2023-04-29T13:10:46.072Z,19.53
2023-04-29T13:11:46.856Z,19.49
2023-04-29T13:12:47.606Z,19.56
2023-04-29T13:13:48.530Z,19.52
2023-04-29T13:14:49.246Z,19.52
2023-04-29T13:15:49.160Z,19.53
2023-04-29T13:16:50.067Z,19.71
2023-04-29T13:17:50.191Z,19.79
2023-04-29T13:19:34.671Z,19.89
2023-04-29T13:21:06.044Z,19.84
2023-04-29T13:23:05.770Z,19.89
2023-04-29T13:24:06.550Z,20.04
2023-04-29T13:25:07.076Z,20.1
2023-04-29T13:26:07.680Z,20.21
2023-04-29T13:27:08.600Z,20.24